createdAt,value
2016-10-31T00:00:40.355Z,99.99
2016-10-31T00:01:40.339Z,99.99
2016-10-31T00:02:40.314Z,99.99
2016-10-31T00:03:40.292Z,99.99
2016-10-31T00:04:40.289Z,99.99
2016-10-31T00:05:40.269Z,99.99
2016-10-31T00:06:40.269Z,99.99
2016-10-31T00:07:40.241Z,99.99
2016-10-31T00:08:40.229Z,99.99
2016-10-31T00:09:40.212Z,99.99
2016-10-31T00:10:40.179Z,99.99
2016-10-31T00:11:40.174Z,99.99
2016-10-31T00:12:40.500Z,99.99
2016-10-31T00:13:40.136Z,99.99
2016-10-31T00:14:40.141Z,99.99
2016-10-31T00:15:40.129Z,99.99
2016-10-31T00:16:40.091Z,99.99
2016-10-31T00:17:40.104Z,99.99
2016-10-31T00:18:40.061Z,99.99
2016-10-31T00:19:40.072Z,99.99
2016-10-31T00:20:40.056Z,99.99
2016-10-31T00:21:40.052Z,99.99
2016-10-31T00:22:40.028Z,99.99
2016-10-31T00:23:40.004Z,99.99
2016-10-31T00:24:39.999Z,99.99
2016-10-31T00:25:39.995Z,99.99
2016-10-31T00:26:39.962Z,99.99
2016-10-31T00:27:39.937Z,99.99
2016-10-31T00:28:39.934Z,99.99
2016-10-31T00:29:39.918Z,99.99
2016-10-31T00:30:39.915Z,99.99
2016-10-31T00:31:39.900Z,99.99
2016-10-31T00:32:39.899Z,99.99
2016-10-31T00:33:39.876Z,99.99
2016-10-31T00:34:39.847Z,99.99
2016-10-31T00:35:39.834Z,99.99
2016-10-31T00:36:39.827Z,99.99
2016-10-31T00:37:39.798Z,99.99
2016-10-31T00:38:39.805Z,99.99
2016-10-31T00:39:39.779Z,99.99
2016-10-31T00:40:39.787Z,99.99
2016-10-31T00:41:39.752Z,99.99
2016-10-31T00:42:39.759Z,99.99
2016-10-31T00:43:39.743Z,99.99
2016-10-31T00:44:39.710Z,99.99
2016-10-31T00:45:39.716Z,99.99
2016-10-31T00:46:39.683Z,99.99
2016-10-31T00:47:39.688Z,99.99
2016-10-31T00:48:39.651Z,99.99
2016-10-31T00:49:39.659Z,99.99
2016-10-31T00:50:39.623Z,99.99
2016-10-31T00:51:39.610Z,99.99
2016-10-31T00:52:39.597Z,99.99
2016-10-31T00:53:39.571Z,99.99
2016-10-31T00:54:39.588Z,99.99
2016-10-31T00:55:39.576Z,99.99
2016-10-31T00:56:39.560Z,99.99
2016-10-31T00:57:39.583Z,99.99
2016-10-31T00:58:39.532Z,99.99
2016-10-31T00:59:39.497Z,99.99
2016-10-31T01:00:39.505Z,99.99
2016-10-31T01:01:39.480Z,99.99
2016-10-31T01:02:39.466Z,99.99
2016-10-31T01:03:39.562Z,99.99
2016-10-31T01:04:39.417Z,99.99
2016-10-31T01:05:39.437Z,99.99
2016-10-31T01:06:39.418Z,99.99
2016-10-31T01:07:39.372Z,99.99
2016-10-31T01:08:39.381Z,99.99
2016-10-31T01:09:39.378Z,99.99
2016-10-31T01:10:39.331Z,99.99
2016-10-31T01:11:39.330Z,99.99
2016-10-31T01:12:39.339Z,99.99
2016-10-31T01:13:39.291Z,99.99
2016-10-31T01:14:39.297Z,99.99
2016-10-31T01:15:39.282Z,99.99
2016-10-31T01:16:39.268Z,99.99
2016-10-31T01:17:39.244Z,99.99
2016-10-31T01:18:39.252Z,99.99
2016-10-31T01:19:39.226Z,99.99
2016-10-31T01:20:39.192Z,99.99
2016-10-31T01:21:39.200Z,99.99
2016-10-31T01:22:39.161Z,99.99
2016-10-31T01:23:39.158Z,99.99
2016-10-31T01:24:39.166Z,99.99
2016-10-31T01:25:39.119Z,99.99
2016-10-31T01:26:39.117Z,99.99
2016-10-31T01:27:39.122Z,99.99
2016-10-31T01:28:39.077Z,99.99
2016-10-31T01:29:39.095Z,99.99
2016-10-31T01:30:39.049Z,99.99
2016-10-31T01:31:39.056Z,99.99
2016-10-31T01:32:39.041Z,99.99
2016-10-31T01:33:39.037Z,99.99
2016-10-31T01:34:39.001Z,99.99
2016-10-31T01:35:38.994Z,99.99
2016-10-31T01:36:38.972Z,99.99
2016-10-31T01:37:38.958Z,99.99
2016-10-31T01:38:38.930Z,99.99
2016-10-31T01:39:38.917Z,99.99
2016-10-31T01:40:38.910Z,99.99
2016-10-31T01:41:38.909Z,99.99
2016-10-31T01:42:38.875Z,99.99
2016-10-31T01:43:38.869Z,99.99
2016-10-31T01:44:38.846Z,99.99
2016-10-31T01:45:38.831Z,99.99
2016-10-31T01:46:38.826Z,99.99
2016-10-31T01:47:38.825Z,99.99
2016-10-31T01:48:38.797Z,99.99
2016-10-31T01:49:38.796Z,99.99
2016-10-31T01:50:38.759Z,99.99
2016-10-31T01:51:38.764Z,99.99
2016-10-31T01:52:38.741Z,99.99
2016-10-31T01:53:38.751Z,99.99
2016-10-31T01:54:38.733Z,99.99
2016-10-31T01:55:38.686Z,99.99
2016-10-31T01:56:38.671Z,99.99
2016-10-31T01:57:38.678Z,99.99
2016-10-31T01:58:38.642Z,99.99
2016-10-31T01:59:38.659Z,99.99
2016-10-31T02:00:38.626Z,99.99
2016-10-31T02:01:38.611Z,99.99
2016-10-31T02:02:38.618Z,99.99
2016-10-31T02:03:38.571Z,99.99
2016-10-31T02:04:38.569Z,99.99
2016-10-31T02:05:38.541Z,99.99
2016-10-31T02:06:38.527Z,99.99
2016-10-31T02:07:38.545Z,99.99
2016-10-31T02:08:38.509Z,99.99
2016-10-31T02:09:38.482Z,99.99
2016-10-31T02:10:38.508Z,99.99
2016-10-31T02:11:38.486Z,99.99
2016-10-31T02:12:38.470Z,99.99
2016-10-31T02:13:38.438Z,99.99
2016-10-31T02:14:38.433Z,99.99
2016-10-31T02:15:38.397Z,99.99
2016-10-31T02:16:38.387Z,99.99
2016-10-31T02:17:38.402Z,99.99
2016-10-31T02:18:38.364Z,99.99
2016-10-31T02:19:38.342Z,99.99
2016-10-31T02:20:38.328Z,99.99
2016-10-31T02:21:38.359Z,99.99
2016-10-31T02:22:38.309Z,99.99
2016-10-31T02:23:38.284Z,99.99
2016-10-31T02:24:38.300Z,99.99
2016-10-31T02:25:38.254Z,99.99
2016-10-31T02:26:38.262Z,99.99
2016-10-31T02:27:38.237Z,99.99
2016-10-31T02:28:38.250Z,99.99
2016-10-31T02:29:38.220Z,99.99
2016-10-31T02:30:38.195Z,99.99
2016-10-31T02:31:38.189Z,99.99
2016-10-31T02:32:38.164Z,99.99
2016-10-31T02:33:38.190Z,99.99
2016-10-31T02:34:38.138Z,99.99
2016-10-31T02:35:38.119Z,99.99
2016-10-31T02:36:38.121Z,99.99
2016-10-31T02:37:38.083Z,99.99
2016-10-31T02:38:38.080Z,99.99
2016-10-31T02:39:38.065Z,99.99
2016-10-31T02:40:38.073Z,99.99
2016-10-31T02:41:38.057Z,99.99
2016-10-31T02:42:38.023Z,99.99
2016-10-31T02:43:38.057Z,99.99
2016-10-31T02:44:37.987Z,99.99
2016-10-31T02:45:37.980Z,99.99
2016-10-31T02:46:37.987Z,99.99
2016-10-31T02:47:37.962Z,99.99
2016-10-31T02:48:37.938Z,99.99
2016-10-31T02:49:37.932Z,99.99
2016-10-31T02:50:37.918Z,99.99
2016-10-31T02:51:37.916Z,99.99
2016-10-31T02:52:37.901Z,99.99
2016-10-31T02:53:37.877Z,99.99
2016-10-31T02:54:37.840Z,99.99
2016-10-31T02:55:37.848Z,99.99
2016-10-31T02:56:37.848Z,99.99
2016-10-31T02:57:37.806Z,99.99
2016-10-31T02:58:37.805Z,99.99
2016-10-31T02:59:37.767Z,99.99
2016-10-31T03:00:37.764Z,99.99
2016-10-31T03:01:37.749Z,99.99
2016-10-31T03:02:37.758Z,99.99
2016-10-31T03:03:37.733Z,99.99
2016-10-31T03:04:37.695Z,99.99
2016-10-31T03:05:37.685Z,99.99
2016-10-31T03:06:37.680Z,99.99
2016-10-31T03:07:37.678Z,99.99
2016-10-31T03:08:37.641Z,99.99
2016-10-31T03:09:37.638Z,99.99
2016-10-31T03:10:37.648Z,99.99
2016-10-31T03:11:37.942Z,99.99
2016-10-31T03:12:37.594Z,99.99
2016-10-31T03:13:37.571Z,99.99
2016-10-31T03:14:37.588Z,99.99
2016-10-31T03:15:37.555Z,99.99
2016-10-31T03:16:37.528Z,99.99
2016-10-31T03:17:37.534Z,99.99
2016-10-31T03:18:37.511Z,99.99
2016-10-31T03:19:37.495Z,99.99
2016-10-31T03:20:37.473Z,99.99
2016-10-31T03:21:37.477Z,99.99
2016-10-31T03:22:37.451Z,99.99
2016-10-31T03:23:37.451Z,99.99
2016-10-31T03:24:37.445Z,99.99
2016-10-31T03:25:37.398Z,99.99
2016-10-31T03:26:37.419Z,99.99
2016-10-31T03:27:37.391Z,99.99
2016-10-31T03:28:37.387Z,99.99
2016-10-31T03:29:37.375Z,99.99
2016-10-31T03:30:37.336Z,99.99
2016-10-31T03:31:37.311Z,99.99
2016-10-31T03:32:37.329Z,99.99
2016-10-31T03:33:37.294Z,99.99
2016-10-31T03:34:37.300Z,99.99
2016-10-31T03:35:37.256Z,99.99
2016-10-31T03:36:37.272Z,99.99
2016-10-31T03:37:37.257Z,99.99
2016-10-31T03:38:37.209Z,99.99
2016-10-31T03:39:37.227Z,99.99
2016-10-31T03:40:37.215Z,99.99
2016-10-31T03:41:37.238Z,99.99
2016-10-31T03:42:37.173Z,99.99
2016-10-31T03:43:37.173Z,99.99
2016-10-31T03:44:37.160Z,99.99
2016-10-31T03:45:37.143Z,99.99
2016-10-31T03:46:37.107Z,99.99
2016-10-31T03:47:37.109Z,99.99
2016-10-31T03:48:37.069Z,99.99
2016-10-31T03:49:37.090Z,99.99
2016-10-31T03:50:37.074Z,99.99
2016-10-31T03:51:37.029Z,99.99
2016-10-31T03:52:37.047Z,99.99
2016-10-31T03:53:37.001Z,99.99
2016-10-31T03:54:36.997Z,99.99
2016-10-31T03:55:36.984Z,99.99
2016-10-31T03:56:36.957Z,99.99
2016-10-31T03:57:36.977Z,99.99
2016-10-31T03:58:36.930Z,99.99
2016-10-31T03:59:36.936Z,99.99
2016-10-31T04:00:36.934Z,99.99
2016-10-31T04:01:36.889Z,99.99
2016-10-31T04:02:36.911Z,99.99
2016-10-31T04:03:36.859Z,99.99
2016-10-31T04:04:36.880Z,99.99
2016-10-31T04:05:36.843Z,99.99
2016-10-31T04:06:36.836Z,99.99
2016-10-31T04:07:36.835Z,99.99
2016-10-31T04:08:36.823Z,99.99
2016-10-31T04:09:36.794Z,99.99
2016-10-31T04:10:36.762Z,99.99
2016-10-31T04:11:37.084Z,99.99
2016-10-31T04:12:36.732Z,99.99
2016-10-31T04:13:36.728Z,99.99
2016-10-31T04:14:36.737Z,99.99
2016-10-31T04:15:36.688Z,99.99
2016-10-31T04:16:36.702Z,99.99
2016-10-31T04:17:36.671Z,99.99
2016-10-31T04:18:36.672Z,99.99
2016-10-31T04:19:36.655Z,99.99
2016-10-31T04:20:36.619Z,99.99
2016-10-31T04:21:36.617Z,99.99
2016-10-31T04:22:36.625Z,99.99
2016-10-31T04:23:36.575Z,99.99
2016-10-31T04:24:36.582Z,99.99
2016-10-31T04:25:36.569Z,99.99
2016-10-31T04:26:36.584Z,99.99
2016-10-31T04:27:36.550Z,99.99
2016-10-31T04:28:36.535Z,99.99
2016-10-31T04:29:36.523Z,99.99
2016-10-31T04:30:36.478Z,99.99
2016-10-31T04:31:36.495Z,99.99
2016-10-31T04:32:36.472Z,99.99
2016-10-31T04:33:36.433Z,99.99
2016-10-31T04:34:36.431Z,99.99
2016-10-31T04:35:36.418Z,99.99
2016-10-31T04:36:36.402Z,99.99
2016-10-31T04:37:36.377Z,99.99
2016-10-31T04:38:36.397Z,99.99
2016-10-31T04:39:36.349Z,99.99
2016-10-31T04:40:36.334Z,99.99
2016-10-31T04:41:36.319Z,99.99
2016-10-31T04:42:36.318Z,99.99
2016-10-31T04:43:36.302Z,99.99
2016-10-31T04:44:36.289Z,99.99
2016-10-31T04:45:36.612Z,99.99
2016-10-31T04:46:36.273Z,99.99
2016-10-31T04:47:36.267Z,99.99
2016-10-31T04:48:36.234Z,99.99
2016-10-31T04:49:36.207Z,99.99
2016-10-31T04:50:36.222Z,99.99
2016-10-31T04:51:36.200Z,99.99
2016-10-31T04:52:36.197Z,99.99
2016-10-31T04:53:36.188Z,99.99
2016-10-31T04:54:36.156Z,99.99
2016-10-31T04:55:36.131Z,99.99
2016-10-31T04:56:36.141Z,99.99
2016-10-31T04:57:36.125Z,99.99
2016-10-31T04:58:36.101Z,99.99
2016-10-31T04:59:36.065Z,99.99
2016-10-31T05:00:36.074Z,99.99
2016-10-31T05:01:36.037Z,99.99
2016-10-31T05:02:36.035Z,99.99
2016-10-31T05:03:36.030Z,99.99
2016-10-31T05:04:36.017Z,99.99
2016-10-31T05:05:35.991Z,99.99
2016-10-31T05:06:35.990Z,99.99
2016-10-31T05:07:35.957Z,99.99
2016-10-31T05:08:35.973Z,99.99
2016-10-31T05:09:35.958Z,99.99
2016-10-31T05:10:35.935Z,99.99
2016-10-31T05:11:35.898Z,99.99
2016-10-31T05:12:35.893Z,99.99
2016-10-31T05:13:35.903Z,99.99
2016-10-31T05:14:35.855Z,99.99
2016-10-31T05:15:35.874Z,99.99
2016-10-31T05:16:35.860Z,99.99
2016-10-31T05:17:36.115Z,99.99
2016-10-31T05:18:35.831Z,99.99
2016-10-31T05:19:35.817Z,99.99
2016-10-31T05:20:35.802Z,99.99
2016-10-31T05:21:35.779Z,99.99
2016-10-31T05:22:35.755Z,99.99
2016-10-31T05:23:35.738Z,99.99
2016-10-31T05:24:35.724Z,99.99
2016-10-31T05:25:35.732Z,99.99
2016-10-31T05:26:35.696Z,99.99
2016-10-31T05:27:35.691Z,99.99
2016-10-31T05:28:35.657Z,99.99
2016-10-31T05:29:35.664Z,99.99
2016-10-31T05:30:35.629Z,99.99
2016-10-31T05:31:35.634Z,99.99
2016-10-31T05:32:35.621Z,99.99
2016-10-31T05:33:35.585Z,99.99
2016-10-31T05:34:35.584Z,99.99
2016-10-31T05:35:35.567Z,99.99
2016-10-31T05:36:35.544Z,99.99
2016-10-31T05:37:35.561Z,99.99
2016-10-31T05:38:35.525Z,99.99
2016-10-31T05:39:35.532Z,99.99
2016-10-31T05:40:35.493Z,99.99
2016-10-31T05:41:35.494Z,99.99
2016-10-31T05:42:35.489Z,99.99
2016-10-31T05:43:35.797Z,99.99
2016-10-31T05:44:35.464Z,99.99
2016-10-31T05:45:35.436Z,99.99
2016-10-31T05:46:35.435Z,99.99
2016-10-31T05:47:35.410Z,99.99
2016-10-31T05:48:35.400Z,99.99
2016-10-31T05:49:35.369Z,99.99
2016-10-31T05:50:35.374Z,99.99
2016-10-31T05:51:35.365Z,99.99
2016-10-31T05:52:35.318Z,99.99
2016-10-31T05:53:35.320Z,99.99
2016-10-31T05:54:35.317Z,99.99
2016-10-31T05:55:35.294Z,99.99
2016-10-31T05:56:35.267Z,99.99
2016-10-31T05:57:35.275Z,99.99
2016-10-31T05:58:35.258Z,99.99
2016-10-31T05:59:35.235Z,99.99
2016-10-31T06:00:35.198Z,99.99
2016-10-31T06:01:35.185Z,99.99
2016-10-31T06:02:35.194Z,99.99
2016-10-31T06:03:35.154Z,99.99
2016-10-31T06:04:35.181Z,99.99
2016-10-31T06:05:35.162Z,99.99
2016-10-31T06:06:35.116Z,99.99
2016-10-31T06:07:35.096Z,99.99
2016-10-31T06:08:35.116Z,99.99
2016-10-31T06:09:35.102Z,99.99
2016-10-31T06:10:35.067Z,99.99
2016-10-31T06:11:35.043Z,99.99
2016-10-31T06:12:35.059Z,99.99
2016-10-31T06:13:35.047Z,99.99
2016-10-31T06:14:35.032Z,99.99
2016-10-31T06:15:34.986Z,99.99
2016-10-31T06:16:34.993Z,99.99
2016-10-31T06:17:34.981Z,99.99
2016-10-31T06:18:34.953Z,99.99
2016-10-31T06:19:34.951Z,99.99
2016-10-31T06:20:34.915Z,99.99
2016-10-31T06:21:34.933Z,99.99
2016-10-31T06:22:34.920Z,99.99
2016-10-31T06:23:34.874Z,99.99
2016-10-31T06:24:34.884Z,99.99
2016-10-31T06:25:34.878Z,99.99
2016-10-31T06:26:34.834Z,99.99
2016-10-31T06:27:34.820Z,99.99
2016-10-31T06:28:34.818Z,99.99
2016-10-31T06:29:34.823Z,99.99
2016-10-31T06:30:34.791Z,99.99
2016-10-31T06:31:34.788Z,99.99
2016-10-31T06:32:34.764Z,99.99
2016-10-31T06:33:34.749Z,99.99
2016-10-31T06:34:34.759Z,99.99
2016-10-31T06:35:34.746Z,99.99
2016-10-31T06:36:34.710Z,99.99
2016-10-31T06:37:34.718Z,99.99
2016-10-31T06:38:34.676Z,99.99
2016-10-31T06:39:34.683Z,99.99
2016-10-31T06:40:34.669Z,99.99
2016-10-31T06:41:34.639Z,99.99
2016-10-31T06:42:34.634Z,99.99
2016-10-31T06:43:34.630Z,99.99
2016-10-31T06:44:34.628Z,99.99
2016-10-31T06:45:34.584Z,99.99
2016-10-31T06:46:34.601Z,99.99
2016-10-31T06:47:34.582Z,99.99
2016-10-31T06:48:34.580Z,99.99
2016-10-31T06:49:34.534Z,99.99
2016-10-31T06:50:34.544Z,99.99
2016-10-31T06:51:34.540Z,99.99
2016-10-31T06:52:34.529Z,99.99
2016-10-31T06:53:34.517Z,99.99
2016-10-31T06:54:34.480Z,99.99
2016-10-31T06:55:34.479Z,99.99
2016-10-31T06:56:34.456Z,99.99
2016-10-31T06:57:34.455Z,99.99
2016-10-31T06:58:34.420Z,99.99
2016-10-31T06:59:34.439Z,99.99
2016-10-31T07:00:34.396Z,99.99
2016-10-31T07:01:34.406Z,99.99
2016-10-31T07:02:34.392Z,99.99
2016-10-31T07:03:34.391Z,99.99
2016-10-31T07:04:34.357Z,99.99
2016-10-31T07:05:34.347Z,99.99
2016-10-31T07:06:34.355Z,99.99
2016-10-31T07:07:34.332Z,99.99
2016-10-31T07:08:34.320Z,99.99
2016-10-31T07:09:34.319Z,99.99
2016-10-31T07:10:34.309Z,99.99
2016-10-31T07:11:34.264Z,99.99
2016-10-31T07:12:34.285Z,99.99
2016-10-31T07:13:34.273Z,99.99
2016-10-31T07:14:34.252Z,99.99
2016-10-31T07:15:34.220Z,99.99
2016-10-31T07:16:34.208Z,99.99
2016-10-31T07:17:34.241Z,99.99
2016-10-31T07:18:34.189Z,99.99
2016-10-31T07:19:34.212Z,99.99
2016-10-31T07:20:34.184Z,99.99
2016-10-31T07:21:34.184Z,99.99
2016-10-31T07:22:34.176Z,99.99
2016-10-31T07:23:34.161Z,99.99
2016-10-31T07:24:34.131Z,99.99
2016-10-31T07:25:34.140Z,99.99
2016-10-31T07:26:34.098Z,99.99
2016-10-31T07:27:34.118Z,99.99
2016-10-31T07:28:34.104Z,99.99
2016-10-31T07:29:34.077Z,99.99
2016-10-31T07:30:34.086Z,99.99
2016-10-31T07:31:34.041Z,99.99
2016-10-31T07:32:34.064Z,99.99
2016-10-31T07:33:34.034Z,99.99
2016-10-31T07:34:34.033Z,99.99
2016-10-31T07:35:34.036Z,99.99
2016-10-31T07:36:34.022Z,99.99
2016-10-31T07:37:34.014Z,99.99
2016-10-31T07:38:33.967Z,99.99
2016-10-31T07:39:33.957Z,99.99
2016-10-31T07:40:33.949Z,99.99
2016-10-31T07:41:33.971Z,99.99
2016-10-31T07:42:33.950Z,99.99
2016-10-31T07:43:33.940Z,99.99
2016-10-31T07:44:33.943Z,99.99
2016-10-31T07:45:33.922Z,99.99
2016-10-31T07:46:33.919Z,99.93
2016-10-31T07:47:33.903Z,99.99
2016-10-31T07:48:33.893Z,99.99
2016-10-31T07:49:33.872Z,99.99
2016-10-31T07:50:33.862Z,99.88
2016-10-31T07:51:33.838Z,99.79
2016-10-31T07:52:33.861Z,99.79
2016-10-31T07:53:33.858Z,99.79
2016-10-31T07:54:33.846Z,99.6
2016-10-31T07:55:33.809Z,99.88
2016-10-31T07:56:33.822Z,99.55
2016-10-31T07:57:33.792Z,99.65
2016-10-31T07:58:33.804Z,99.27
2016-10-31T07:59:33.782Z,99.27
2016-10-31T08:00:33.811Z,99.22
2016-10-31T08:01:33.744Z,99.12
2016-10-31T08:02:33.768Z,98.55
2016-10-31T08:03:33.747Z,98.93
2016-10-31T08:04:33.737Z,98.83
2016-10-31T08:05:33.718Z,98.93
2016-10-31T08:06:33.705Z,98.46
2016-10-31T08:07:33.686Z,98.55
2016-10-31T08:08:33.677Z,98.41
2016-10-31T08:09:33.679Z,98.69
2016-10-31T08:10:33.671Z,98.69
2016-10-31T08:11:33.661Z,98.6
2016-10-31T08:12:33.674Z,98.36
2016-10-31T08:13:33.645Z,98.12
2016-10-31T08:14:33.645Z,98.22
2016-10-31T08:15:33.647Z,98.12
2016-10-31T08:16:33.606Z,98.36
2016-10-31T08:17:33.597Z,97.88
2016-10-31T08:18:33.586Z,98.03
2016-10-31T08:19:33.607Z,97.55
2016-10-31T08:20:33.567Z,97.74
2016-10-31T08:21:33.590Z,97.78
2016-10-31T08:22:33.581Z,97.78
2016-10-31T08:23:33.570Z,97.93
2016-10-31T08:24:33.765Z,97.98
2016-10-31T08:25:33.533Z,97.98
2016-10-31T08:26:33.523Z,97.41
2016-10-31T08:27:33.533Z,97.41
2016-10-31T08:28:33.502Z,97.17
2016-10-31T08:29:33.480Z,97.45
2016-10-31T08:30:33.473Z,97.27
2016-10-31T08:31:33.468Z,97.08
2016-10-31T08:32:33.504Z,96.98
2016-10-31T08:33:33.457Z,97.41
2016-10-31T08:34:33.469Z,97.03
2016-10-31T08:35:33.458Z,96.79
2016-10-31T08:36:33.439Z,96.22
2016-10-31T08:37:33.420Z,97.08
2016-10-31T08:38:33.418Z,96.89
2016-10-31T08:39:33.390Z,96.65
2016-10-31T08:40:33.393Z,96.65
2016-10-31T08:41:33.381Z,96.69
2016-10-31T08:42:33.362Z,96.41
2016-10-31T08:43:33.385Z,96.79
2016-10-31T08:44:33.362Z,96.26
2016-10-31T08:45:33.345Z,96.17
2016-10-31T08:46:33.338Z,96.08
2016-10-31T08:47:33.347Z,96.31
2016-10-31T08:48:33.303Z,96.26
2016-10-31T08:49:33.315Z,96.22
2016-10-31T08:50:33.325Z,95.65
2016-10-31T08:51:33.275Z,96.03
2016-10-31T08:52:33.297Z,96.22
2016-10-31T08:53:33.277Z,96.17
2016-10-31T08:54:33.270Z,95.6
2016-10-31T08:55:33.460Z,95.84
2016-10-31T08:56:33.438Z,95.17
2016-10-31T08:57:33.231Z,95.36
2016-10-31T08:58:33.240Z,95.56
2016-10-31T08:59:33.231Z,95.79
2016-10-31T09:00:33.190Z,95.41
2016-10-31T09:01:33.213Z,95.6
2016-10-31T09:02:33.191Z,95.89
2016-10-31T09:03:33.159Z,95.22
2016-10-31T09:04:33.182Z,95.41
2016-10-31T09:05:33.144Z,94.93
2016-10-31T09:06:33.152Z,95.12
2016-10-31T09:07:33.154Z,95.32
2016-10-31T09:08:33.146Z,95.41
2016-10-31T09:09:33.136Z,95.32
2016-10-31T09:10:33.094Z,95.51
2016-10-31T09:11:33.086Z,94.65
2016-10-31T09:12:33.109Z,94.56
2016-10-31T09:13:33.065Z,94.65
2016-10-31T09:14:33.077Z,94.74
2016-10-31T09:15:33.047Z,94.74
2016-10-31T09:16:33.036Z,94.74
2016-10-31T09:17:33.048Z,94.98
2016-10-31T09:18:33.015Z,94.89
2016-10-31T09:19:33.039Z,94.89
2016-10-31T09:20:33.019Z,94.6
2016-10-31T09:21:33.021Z,94.6
2016-10-31T09:22:32.977Z,94.51
2016-10-31T09:23:32.978Z,94.42
2016-10-31T09:24:32.968Z,94.13
2016-10-31T09:25:32.969Z,94.08
2016-10-31T09:26:32.961Z,94.18
2016-10-31T09:27:32.962Z,93.98
2016-10-31T09:28:33.136Z,94.08
2016-10-31T09:29:32.909Z,93.94
2016-10-31T09:30:32.932Z,94.08
2016-10-31T09:31:32.889Z,93.98
2016-10-31T09:32:32.995Z,94.08
2016-10-31T09:33:32.891Z,94.42
2016-10-31T09:34:32.860Z,93.84
2016-10-31T09:35:32.849Z,93.98
2016-10-31T09:36:32.862Z,93.98
2016-10-31T09:37:32.865Z,94.18
2016-10-31T09:38:32.835Z,93.94
2016-10-31T09:39:32.843Z,93.89
2016-10-31T09:40:32.833Z,93.32
2016-10-31T09:41:32.824Z,93.89
2016-10-31T09:42:32.809Z,93.51
2016-10-31T09:43:32.806Z,93.23
2016-10-31T09:44:32.795Z,93.23
2016-10-31T09:45:32.754Z,93.41
2016-10-31T09:46:32.766Z,93.41
2016-10-31T09:47:32.754Z,93.46
2016-10-31T09:48:32.744Z,93.46
2016-10-31T09:49:32.728Z,93.46
2016-10-31T09:50:32.726Z,93.27
2016-10-31T09:51:32.715Z,93.13
2016-10-31T09:52:32.717Z,93.32
2016-10-31T09:53:32.674Z,93.74
2016-10-31T09:54:32.700Z,93.41
2016-10-31T09:55:32.678Z,93.13
2016-10-31T09:56:32.680Z,93.22
2016-10-31T09:57:32.647Z,92.89
2016-10-31T09:58:32.660Z,93.08
2016-10-31T09:59:47.531Z,93.08
2016-10-31T10:00:32.822Z,93.18
2016-10-31T10:01:32.598Z,93.32
2016-10-31T10:02:32.600Z,92.55
2016-10-31T10:03:32.581Z,92.65
2016-10-31T10:04:32.583Z,92.74
2016-10-31T10:05:32.594Z,93.03
2016-10-31T10:06:32.574Z,92.98
2016-10-31T10:07:32.575Z,93.08
2016-10-31T10:08:32.566Z,93.22
2016-10-31T10:09:32.674Z,93.03
2016-10-31T10:10:32.550Z,93.32
2016-10-31T10:11:32.519Z,92.84
2016-10-31T10:12:32.532Z,92.27
2016-10-31T10:13:32.500Z,92.94
2016-10-31T10:14:32.515Z,92.55
2016-10-31T10:15:32.481Z,92.32
2016-10-31T10:16:32.476Z,92.32
2016-10-31T10:17:32.465Z,92.51
2016-10-31T10:18:32.457Z,92.32
2016-10-31T10:19:32.469Z,92.32
2016-10-31T10:20:32.459Z,92.22
2016-10-31T10:21:32.419Z,92.32
2016-10-31T10:22:32.479Z,92.13
2016-10-31T10:23:32.399Z,92.08
2016-10-31T10:24:32.391Z,92.36
2016-10-31T10:25:32.414Z,92.13
2016-10-31T10:26:32.370Z,92.22
2016-10-31T10:27:32.392Z,92.22
2016-10-31T10:28:32.386Z,92.41
2016-10-31T10:29:32.344Z,92.22
2016-10-31T10:30:32.355Z,92.27
2016-10-31T10:31:32.347Z,91.79
2016-10-31T10:32:32.339Z,91.75
2016-10-31T10:33:32.305Z,91.75
2016-10-31T10:34:32.308Z,91.75
2016-10-31T10:35:32.340Z,91.8
2016-10-31T10:36:32.301Z,91.61
2016-10-31T10:37:32.587Z,91.7
2016-10-31T10:38:32.282Z,91.84
2016-10-31T10:39:32.285Z,91.99
2016-10-31T10:40:32.264Z,91.65
2016-10-31T10:41:32.255Z,91.51
2016-10-31T10:42:32.222Z,91.32
2016-10-31T10:43:32.214Z,91.61
2016-10-31T10:44:32.206Z,91.51
2016-10-31T10:45:32.220Z,91.13
2016-10-31T10:46:32.196Z,91.13
2016-10-31T10:47:32.178Z,91.42
2016-10-31T10:48:32.177Z,91.32
2016-10-31T10:49:32.184Z,91.32
2016-10-31T10:50:32.224Z,91.32
2016-10-31T10:51:32.173Z,91.32
2016-10-31T10:52:32.152Z,91.08
2016-10-31T10:53:32.118Z,90.99
2016-10-31T10:54:32.133Z,91.03
2016-10-31T10:55:32.121Z,91.13
2016-10-31T10:56:32.101Z,91.32
2016-10-31T10:57:32.112Z,91.13
2016-10-31T10:58:32.069Z,91.03
2016-10-31T10:59:32.071Z,91.17
2016-10-31T11:00:32.077Z,91.08
2016-10-31T11:01:32.073Z,90.89
2016-10-31T11:02:32.030Z,90.8
2016-10-31T11:03:32.056Z,90.84
2016-10-31T11:04:32.083Z,90.66
2016-10-31T11:05:32.036Z,90.47
2016-10-31T11:06:32.013Z,90.8
2016-10-31T11:07:32.008Z,90.89
2016-10-31T11:08:31.995Z,90.89
2016-10-31T11:09:32.008Z,90.99
2016-10-31T11:10:31.987Z,90.99
2016-10-31T11:11:31.966Z,91.03
2016-10-31T11:12:31.972Z,90.65
2016-10-31T11:13:31.948Z,90.56
2016-10-31T11:14:31.916Z,90.66
2016-10-31T11:15:31.940Z,90.56
2016-10-31T11:16:31.901Z,90.47
2016-10-31T11:17:31.887Z,90.56
2016-10-31T11:18:31.940Z,90.7
2016-10-31T11:19:31.887Z,90.42
2016-10-31T11:20:31.894Z,90.22
2016-10-31T11:21:31.864Z,90.37
2016-10-31T11:22:31.853Z,90.28
2016-10-31T11:23:31.863Z,90.37
2016-10-31T11:24:31.856Z,90.18
2016-10-31T11:25:31.825Z,90.18
2016-10-31T11:26:31.804Z,90.28
2016-10-31T11:27:31.818Z,90.08
2016-10-31T11:28:31.795Z,90.13
2016-10-31T11:29:31.786Z,90.03
2016-10-31T11:30:31.779Z,89.89
2016-10-31T11:31:31.760Z,90.08
2016-10-31T11:32:31.761Z,89.99
2016-10-31T11:33:31.750Z,89.99
2016-10-31T11:34:31.730Z,89.89
2016-10-31T11:35:31.721Z,89.99
2016-10-31T11:36:31.712Z,90.22
2016-10-31T11:37:31.725Z,89.94
2016-10-31T11:38:31.703Z,89.65
2016-10-31T11:39:31.684Z,89.94
2016-10-31T11:40:31.673Z,89.84
2016-10-31T11:41:31.662Z,89.89
2016-10-31T11:42:31.666Z,89.47
2016-10-31T11:43:31.654Z,89.61
2016-10-31T11:44:31.635Z,89.42
2016-10-31T11:45:31.625Z,89.42
2016-10-31T11:46:31.618Z,89.89
2016-10-31T11:47:31.621Z,89.37
2016-10-31T11:48:31.600Z,89.37
2016-10-31T11:49:31.615Z,89.61
2016-10-31T11:50:31.592Z,89.22
2016-10-31T11:51:31.605Z,89.47
2016-10-31T11:52:31.603Z,89.47
2016-10-31T11:53:31.578Z,89.18
2016-10-31T11:54:31.582Z,89.08
2016-10-31T11:55:31.536Z,89.23
2016-10-31T11:56:31.558Z,89.23
2016-10-31T11:57:31.677Z,89.08
2016-10-31T11:58:31.528Z,89.08
2016-10-31T11:59:31.496Z,89.08
2016-10-31T12:00:31.500Z,88.99
2016-10-31T12:01:31.491Z,88.99
2016-10-31T12:02:31.500Z,88.79
2016-10-31T12:03:31.485Z,88.7
2016-10-31T12:04:31.483Z,88.79
2016-10-31T12:05:31.464Z,89.18
2016-10-31T12:06:31.458Z,88.79
2016-10-31T12:07:31.444Z,88.79
2016-10-31T12:08:31.446Z,89.08
2016-10-31T12:09:31.416Z,88.7
2016-10-31T12:10:31.396Z,88.75
2016-10-31T12:11:31.420Z,88.89
2016-10-31T12:12:31.388Z,88.7
2016-10-31T12:13:31.400Z,88.7
2016-10-31T12:14:31.370Z,88.7
2016-10-31T12:15:31.351Z,88.65
2016-10-31T12:16:31.357Z,88.46
2016-10-31T12:17:31.343Z,88.13
2016-10-31T12:18:31.357Z,88.13
2016-10-31T12:19:31.333Z,88.23
2016-10-31T12:20:31.314Z,88.7
2016-10-31T12:21:31.317Z,88.51
2016-10-31T12:22:31.319Z,88.04
2016-10-31T12:23:31.309Z,88.23
2016-10-31T12:24:31.299Z,88.09
2016-10-31T12:25:31.293Z,87.8
2016-10-31T12:26:31.282Z,88.28
2016-10-31T12:27:31.249Z,88.13
2016-10-31T12:28:31.228Z,88.18
2016-10-31T12:29:31.221Z,88.23
2016-10-31T12:30:31.211Z,87.89
2016-10-31T12:31:31.204Z,88.22
2016-10-31T12:32:31.193Z,88.12
2016-10-31T12:33:31.183Z,87.93
2016-10-31T12:34:31.208Z,87.84
2016-10-31T12:35:31.165Z,87.84
2016-10-31T12:36:31.179Z,88.12
2016-10-31T12:37:31.147Z,88.36
2016-10-31T12:38:31.144Z,88.26
2016-10-31T12:39:31.164Z,87.74
2016-10-31T12:40:31.155Z,87.5
2016-10-31T12:41:31.147Z,87.65
2016-10-31T12:42:31.130Z,87.32
2016-10-31T12:43:31.121Z,87.65
2016-10-31T12:44:31.090Z,87.56
2016-10-31T12:45:31.094Z,87.32
2016-10-31T12:46:31.073Z,87.84
2016-10-31T12:47:31.074Z,87.65
2016-10-31T12:48:31.079Z,87.6
2016-10-31T12:49:31.082Z,87.4
2016-10-31T12:50:31.074Z,87.35
2016-10-31T12:51:31.043Z,87.31
2016-10-31T12:52:31.056Z,87.02
2016-10-31T12:53:31.077Z,87.07